Latest Coastal Weather Observations for Karratha

IDW60701

Issued at 1:52 pm WST Friday 6 March 2015 (issued every 10 minutes, with the page automatically refreshed every 10 minutes)

About coastal observations | Map of coastal stations | Coastal observations for WA | Marine services | Other Formats
Station Details ID: 004083 Name: KARRATHA AERO Lat: -20.71 Lon: 116.77 Height: 5.3 m
Data from the previous 72 hours. | See also: Recent months at Karratha
Date/Time
WST
Temp

°C
Wind Pressure Rain
since 9am
mm
Weather Cloud Vis
km
Sea
Height
m
Swell
Dir
 
Speed
knots
Gust
knots
hPa Trend Height
m
Period
s
Dir
06/01:30pm 32.4 NNE 15 19 1008.3 - 0.0 - - 10 - - - -
06/01:00pm 31.6 NE 16 19 1008.6 - 0.0 - - 10 - - - -
06/12:30pm 32.8 NE 17 21 1009.0 - 0.0 - - 10 - - - -
06/12:00pm 33.0 NE 17 21 1009.4 - 0.0 - - 10 - - - -
06/11:30am 32.8 NE 18 23 1009.7 - 0.0 - - 10 - - - -
06/11:00am 31.7 NE 14 16 1010.1 - 0.0 - - 10 - - - -
06/10:30am 31.1 NE 14 18 1010.7 - 0.0 - - 10 - - - -
06/10:00am 31.2 NE 14 17 1010.8 - 0.0 - Partly cloudy 10 - - - -
06/09:30am 30.0 NE 10 13 1010.6 - 0.0 - Partly cloudy 10 - - - -
06/09:00am 30.6 ENE 10 12 1010.2 - 0.0 - Mostly clear 10 - - - -
06/08:30am 30.0 ENE 9 11 1010.0 - 0.0 - - 10 - - - -
06/08:00am 29.3 E 10 12 1009.7 - 0.0 - - 10 - - - -
06/07:30am 28.3 E 9 10 1009.9 - 0.0 - - 10 - - - -
06/07:00am 27.3 ESE 7 9 1009.7 - 0.0 - - 10 - - - -
06/06:30am 26.6 E 7 8 1009.6 - 0.0 - - 10 - - - -
06/06:00am 26.6 E 7 9 1009.4 - 0.0 - - 10 - - - -
06/05:30am 26.6 ESE 5 6 1009.1 - 0.0 - - 10 - - - -
06/05:04am 26.7 E 6 7 1008.8 - 0.0 - Partly cloudy 10 - - - -
06/05:00am 26.7 E 6 7 1008.9 - 0.0 - Partly cloudy 10 - - - -
06/04:44am 26.8 ESE 5 6 1008.8 - 0.0 - Partly cloudy 10 - - - -
06/04:30am 26.7 ESE 3 5 1008.7 - 0.0 - Partly cloudy 10 - - - -
06/04:23am 26.8 ESE 4 6 1008.7 - 0.0 - Partly cloudy 10 - - - -
06/04:06am 26.8 ESE 4 5 1008.5 - 0.0 - Partly cloudy 10 - - - -
06/04:00am 26.7 ESE 4 5 1008.5 - 0.0 - Partly cloudy 10 - - - -
06/03:30am 26.7 SSE 3 4 1008.3 - 0.0 - - 10 - - - -
06/03:00am 26.8 SE 1 4 1008.6 - 0.0 - - 10 - - - -
06/02:30am 27.2 NE 1 3 1008.6 - 0.0 - - 10 - - - -
06/02:00am 27.2 ENE 4 6 1009.1 - 0.0 - - 10 - - - -
06/01:30am 27.3 ENE 4 5 1009.1 - 0.0 - - 10 - - - -
06/01:00am 27.4 ENE 4 5 1009.4 - 0.0 - - 10 - - - -
06/12:30am 27.8 NE 2 4 1009.7 - 0.0 - - 10 - - - -
06/12:00am 28.0 NE 5 6 1010.0 - 0.0 - - 10 - - - -
 
Date/Time
WST
Temp

°C
Wind Pressure Rain
since 9am
mm
Weather Cloud Vis
km
Sea
Height
m
Swell
Dir
 
Speed
knots
Gust
knots
hPa Trend Height
m
Period
s
Dir
05/11:30pm 28.1 ENE 7 8 1010.2 - 0.0 - - 10 - - - -
05/11:00pm 28.0 ENE 6 7 1010.2 - 0.0 - - 10 - - - -
05/10:30pm 28.1 ENE 5 7 1010.3 - 0.0 - - 10 - - - -
05/10:00pm 28.4 NE 6 8 1010.4 - 0.0 - - 10 - - - -
05/09:30pm 28.5 NE 6 8 1010.4 - 0.0 - - 10 - - - -
05/09:00pm 28.7 NE 7 9 1010.3 - 0.0 - - 10 - - - -
05/08:30pm 28.7 NE 7 9 1010.0 - 0.0 - - 10 - - - -
05/08:00pm 28.8 NE 8 9 1009.6 - 0.0 - - 10 - - - -
05/07:30pm 28.9 NE 8 10 1009.2 - 0.0 - - 10 - - - -
05/07:00pm 29.2 NE 10 12 1009.3 - 0.0 - - 10 - - - -
05/06:30pm 29.5 NE 10 13 1008.6 - 0.0 - - 10 - - - -
05/06:00pm 30.0 NE 11 13 1008.1 - 0.0 - - 10 - - - -
05/05:30pm 30.0 NE 11 14 1008.0 - 0.0 - - 10 - - - -
05/05:00pm 30.3 ENE 11 14 1007.5 - 0.0 - - 10 - - - -
05/04:30pm 30.4 ENE 11 13 1007.6 - 0.0 - - 10 - - - -
05/04:00pm 30.8 ENE 13 15 1007.5 - 0.0 - - 10 - - - -
05/03:30pm 31.6 ENE 14 17 1007.7 - 0.0 - - 10 - - - -
05/03:00pm 31.1 ENE 15 18 1007.7 - 0.0 - Mostly clear 10 - - - -
05/02:30pm 31.5 ENE 15 19 1007.9 - 0.0 - - 10 - - - -
05/02:00pm 30.8 ENE 13 17 1008.3 - 0.0 - Partly cloudy 10 - - - -
05/01:30pm 31.1 ENE 15 19 1008.5 - 0.0 - Partly cloudy 10 - - - -
05/01:00pm 31.5 ENE 17 23 1008.8 - 0.0 - Partly cloudy 10 - - - -
05/12:30pm 31.4 E 17 22 1009.1 - 0.0 - Partly cloudy 10 - - - -
05/12:00pm 29.8 E 18 22 1009.4 - 0.0 - Partly cloudy 10 - - - -
05/11:30am 28.9 E 19 23 1009.3 - 0.0 - - 10 - - - -
05/11:00am 28.1 E 18 22 1009.6 - 0.0 - - 10 - - - -
05/10:30am 27.6 ESE 16 20 1009.8 - 0.0 - - 10 - - - -
05/10:00am 27.0 ESE 17 23 1010.2 - 0.0 - - 10 - - - -
05/09:30am 26.5 ESE 13 17 1010.4 - 0.0 - - 10 - - - -
05/09:00am 24.8 ESE 11 14 1010.8 - 9.0 Recent precip. Mostly cloudy 10 - - - -
05/08:30am 23.3 ESE 10 13 1010.8 - 9.0 - Partly cloudy 10 - - - -
05/08:19am 23.2 E 12 14 1010.9 - 8.8 - Partly cloudy 8 - - - -
05/08:03am 23.6 ENE 11 14 1010.9 - 8.0 - Partly cloudy 5 - - - -
05/08:00am 23.8 ENE 12 16 1011.0 - 7.4 - Partly cloudy 7 - - - -
05/07:30am 25.2 E 11 15 1009.7 - 5.4 - Partly cloudy 10 - - - -
05/07:00am 25.7 SE 5 7 1008.8 - 4.8 - Partly cloudy 10 - - - -
05/06:30am 25.3 SSE 6 7 1008.4 - 4.8 - Partly cloudy 10 - - - -
05/06:00am 25.3 SSW 7 8 1008.4 - 4.8 - Cloudy 10 - - - -
05/05:30am 25.2 SSW 6 7 1008.1 - 4.8 - Partly cloudy 10 - - - -
05/05:00am 25.1 SSW 6 7 1008.0 - 4.8 - Partly cloudy 10 - - - -
05/04:30am 25.1 S 5 7 1007.9 - 4.8 - Partly cloudy 10 - - - -
05/04:00am 25.0 SSW 7 8 1008.0 - 4.8 - Partly cloudy 10 - - - -
05/03:30am 24.9 SSW 7 9 1007.8 - 4.8 - Partly cloudy 10 - - - -
05/03:00am 24.9 SSW 7 9 1007.9 - 4.8 - Cloudy 10 - - - -
05/02:30am 24.9 SSW 8 10 1008.1 - 4.8 - Partly cloudy 10 - - - -
05/02:00am 24.8 SW 6 9 1008.3 - 4.8 - Partly cloudy 10 - - - -
05/01:30am 24.8 S 8 11 1008.7 - 4.6 - Partly cloudy 10 - - - -
05/01:00am 25.1 S 9 11 1009.1 - 3.8 - Partly cloudy 10 - - - -
05/12:30am 25.4 SSE 8 10 1009.6 - 3.8 - Partly cloudy 10 - - - -
05/12:00am 25.6 SE 6 9 1010.1 - 2.6 Rain Cloudy 10 - - - -
 
Date/Time
WST
Temp

°C
Wind Pressure Rain
since 9am
mm
Weather Cloud Vis
km
Sea
Height
m
Swell
Dir
 
Speed
knots
Gust
knots
hPa Trend Height
m
Period
s
Dir
04/11:30pm 26.1 SSE 5 8 1010.5 - 1.6 - Cloudy 10 - - - -
04/11:00pm 26.4 SE 5 7 1010.1 - 1.6 - Partly cloudy 10 - - - -
04/10:30pm 26.3 E 16 21 1010.7 - 0.8 - Partly cloudy 8 - - - -
04/10:00pm 28.9 E 15 20 1010.3 - 0.0 - Partly cloudy 10 - - - -
04/09:30pm 29.2 E 12 15 1010.0 - 0.0 - Cloudy 10 - - - -
04/09:00pm 29.5 E 11 16 1009.6 - 0.0 - Mostly cloudy 10 - - - -
04/08:30pm 29.6 ENE 11 15 1009.1 - 0.0 - Cloudy 10 - - - -
04/08:00pm 29.7 E 11 13 1008.8 - 0.0 - Partly cloudy 10 - - - -
04/07:30pm 29.4 E 11 15 1008.5 - 0.0 - Partly cloudy 10 - - - -
04/07:00pm 29.2 E 15 20 1008.1 - 0.0 - Partly cloudy 10 - - - -
04/06:30pm 29.8 E 16 19 1007.5 - 0.0 - Partly cloudy 10 - - - -
04/06:00pm 30.4 NE 13 16 1007.4 - 0.0 - Mostly clear 10 - - - -
04/05:30pm 29.9 NE 14 19 1007.2 - 0.0 - - 10 - - - -
04/05:00pm 30.0 NE 14 19 1006.9 - 0.0 - - 10 - - - -
04/04:30pm 30.9 NE 16 20 1006.7 - 0.0 - - 10 - - - -
04/04:00pm 31.2 NE 12 16 1006.9 - 0.0 - - 10 - - - -
04/03:30pm 30.9 ENE 12 14 1007.1 - 0.0 - - 10 - - - -
04/03:00pm 30.5 NE 12 16 1007.3 - 0.0 - Partly cloudy 10 - - - -
04/02:30pm 30.0 NE 15 19 1007.9 - 0.0 - Partly cloudy 10 - - - -
04/02:00pm 30.2 NE 17 20 1008.1 - 0.0 - Partly cloudy 10 - - - -
04/01:30pm 30.6 ENE 17 21 1008.3 - 0.0 - - 10 - - - -
04/01:00pm 30.6 ENE 16 19 1008.7 - 0.0 - Partly cloudy 10 - - - -
04/12:30pm 30.1 ENE 19 23 1009.0 - 0.0 - Partly cloudy 10 - - - -
04/12:00pm 30.7 ENE 17 22 1009.1 - 0.0 - - 10 - - - -
04/11:30am 30.1 E 17 23 1009.3 - 0.0 - Partly cloudy 10 - - - -
04/11:00am 27.7 E 18 24 1009.8 - 0.0 - Partly cloudy 10 - - - -
04/10:30am 27.5 E 18 22 1010.2 - 0.0 - Partly cloudy 10 - - - -
04/10:00am 29.4 E 17 22 1010.1 - 0.0 - - 10 - - - -
04/09:30am 29.3 E 17 21 1009.8 - 0.0 - - 10 - - - -
04/09:00am 30.1 ESE 15 18 1009.5 - 0.0 - - 10 - - - -
04/08:30am 30.0 ESE 7 9 1009.2 - 0.0 - - 10 - - - -
04/08:00am 29.6 SE 7 9 1008.5 - 0.0 - Partly cloudy 10 - - - -
04/07:30am 29.5 SE 9 12 1008.7 - 0.0 - - 10 - - - -
04/07:00am 28.1 SSW 5 6 1008.7 - 0.0 - - 10 - - - -
04/06:30am 27.7 SW 4 5 1008.8 - 0.0 - Partly cloudy 10 - - - -
04/06:00am 28.0 SW 5 7 1008.4 - 0.0 - Partly cloudy 10 - - - -
04/05:30am 28.1 SW 5 6 1008.3 - 0.0 - Partly cloudy 10 - - - -
04/05:00am 28.1 SW 6 8 1007.7 - 0.0 - Partly cloudy 10 - - - -
04/04:30am 28.2 SW 7 8 1007.6 - 0.0 - Cloudy 10 - - - -
04/04:00am 28.2 SW 7 9 1007.6 - 0.0 - Cloudy 10 - - - -
04/03:30am 28.3 SW 8 11 1007.5 - 0.0 - Partly cloudy 10 - - - -
04/03:00am 28.3 SW 9 11 1007.4 - 0.0 - Mostly clear 10 - - - -
04/02:30am 28.4 SW 10 12 1007.4 - 0.0 - Cloudy 10 - - - -
04/02:00am 28.3 SW 10 13 1007.5 - 0.0 - Cloudy 10 - - - -
04/01:30am 28.2 SW 9 12 1007.6 - 0.0 - Partly cloudy 10 - - - -
04/01:00am 28.5 WSW 12 15 1007.8 - 0.0 - - 10 - - - -
04/12:30am 28.4 WSW 11 14 1008.1 - 0.0 - - 10 - - - -
04/12:00am 28.8 W 12 15 1008.6 - 0.0 - - 10 - - - -
 
Date/Time
WST
Temp

°C
Wind Pressure Rain
since 9am
mm
Weather Cloud Vis
km
Sea
Height
m
Swell
Dir
 
Speed
knots
Gust
knots
hPa Trend Height
m
Period
s
Dir
03/11:30pm 28.7 W 13 15 1008.6 - 0.0 - - 10 - - - -
03/11:00pm 28.8 W 12 14 1008.7 - 0.0 - - 10 - - - -
03/10:30pm 29.0 W 11 14 1009.0 - 0.0 - - 10 - - - -
03/10:00pm 29.2 W 11 13 1008.7 - 0.0 - - 10 - - - -
03/09:30pm 29.2 WNW 9 11 1008.9 - 0.0 - - 10 - - - -
03/09:00pm 29.1 WNW 9 12 1008.6 - 0.0 - - 10 - - - -
03/08:30pm 29.3 WNW 9 11 1008.3 - 0.0 - - 10 - - - -
03/08:00pm 29.3 WNW 10 12 1007.8 - 0.0 - - 10 - - - -
03/07:30pm 29.5 WNW 10 12 1007.6 - 0.0 - - 10 - - - -
03/07:00pm 29.7 WNW 9 13 1007.0 - 0.0 - - 10 - - - -
03/06:30pm 30.3 NW 10 13 1006.2 - 0.0 - - 10 - - - -
03/06:00pm 31.3 WNW 10 14 1005.9 - 0.0 - - 10 - - - -
03/05:30pm 31.9 WNW 11 15 1005.5 - 0.0 - - 10 - - - -
03/05:00pm 32.7 NW 9 11 1005.3 - 0.0 - - 10 - - - -
03/04:30pm 33.2 NW 9 12 1005.5 - 0.0 - - 10 - - - -
03/04:00pm 33.5 NNW 9 13 1005.4 - 0.0 - - 10 - - - -
03/03:30pm 33.3 NNW 9 13 1005.4 - 0.0 - - 10 - - - -
03/03:00pm 32.9 NNW 10 14 1005.8 - 0.0 - - 10 - - - -
03/02:30pm 32.9 N 9 13 1006.2 - 0.0 - - 10 - - - -
03/02:00pm 34.0 NW 11 14 1006.3 - 0.0 - - 10 - - - -

Other Formats:

Comma delimited format used in spreadsheet applications
http://www.bom.gov.au/fwo/IDW60701/IDW60701.95307.axf

JavaScript Object Notation format (JSON) in row-major order
http://www.bom.gov.au/fwo/IDW60701/IDW60701.95307.json